Smithfield, North Carolina
Current Conditions -  °F | °C
As of 12:35 PM on Thursday 30 Oct 2014 (Local Time) from KJNX Reporting Station
Clear Clear  
Wind Chill: 66°   Ceiling: Unl
Heat Index: 66°   Visibility: 10mi
Dew Point: 45°   Wind: 9mph
Humidity: 46%   Direction: 30°NNE
Pressure: 30.02"   Gusts: 16mph
Location:  35.51°N, 78.35°W
Report Text: KJNX 301635Z AUTO 03008G14KT 10SM CLR 19/07 A3002 RMK AO2
Loading
Personal Weather Stations






























Interactive Weather Map New forecast layout! Learn more

10-Day Weather Forecast

Advertisements
Track Severe Weather on mobile